createdAt,value
2018-05-11T00:02:02.705Z,16.13
2018-05-11T00:04:29.107Z,17.90
2018-05-11T00:06:55.510Z,12.27
2018-05-11T00:09:21.896Z,12.17
2018-05-11T00:11:48.304Z,10.73
2018-05-11T00:14:14.751Z,12.40
2018-05-11T00:16:41.169Z,11.10
2018-05-11T00:19:07.543Z,10.50
2018-05-11T00:21:33.918Z,13.30
2018-05-11T00:24:01.047Z,12.63
2018-05-11T00:26:27.438Z,11.33
2018-05-11T00:28:53.818Z,9.80
2018-05-11T00:31:20.190Z,11.73
2018-05-11T00:33:46.569Z,10.70
2018-05-11T00:36:12.978Z,10.67
2018-05-11T00:38:39.781Z,9.20
2018-05-11T00:41:06.718Z,11.00
2018-05-11T00:43:33.843Z,8.13
2018-05-11T00:46:00.249Z,9.27
2018-05-11T00:48:26.662Z,11.07
2018-05-11T00:50:53.059Z,8.93
2018-05-11T00:53:20.192Z,12.30
2018-05-11T00:55:49.570Z,8.40
2018-05-11T00:58:16.055Z,10.40
2018-05-11T01:00:42.507Z,8.07
2018-05-11T01:03:08.943Z,15.00
2018-05-11T01:05:35.412Z,12.90
2018-05-11T01:08:01.837Z,9.20
2018-05-11T01:10:28.230Z,11.40
2018-05-11T01:12:54.643Z,16.53
2018-05-11T01:15:21.809Z,37.50
2018-05-11T01:17:48.931Z,44.70
2018-05-11T01:20:15.358Z,11.97
2018-05-11T01:22:42.714Z,9.43
2018-05-11T01:25:09.131Z,15.03
2018-05-11T01:27:35.559Z,9.40
2018-05-11T01:30:01.985Z,8.50
2018-05-11T01:32:28.383Z,8.23
2018-05-11T01:34:54.790Z,12.13
2018-05-11T01:37:21.182Z,11.70
2018-05-11T01:39:47.590Z,10.40
2018-05-11T01:42:13.997Z,11.30
2018-05-11T01:44:41.126Z,11.73
2018-05-11T01:47:08.297Z,8.60
2018-05-11T01:49:35.475Z,7.83
2018-05-11T01:52:01.940Z,10.10
2018-05-11T01:54:28.375Z,8.43
2018-05-11T01:56:54.814Z,10.93
2018-05-11T01:59:22.690Z,10.83
2018-05-11T02:01:49.071Z,11.43
2018-05-11T02:04:15.501Z,11.13
2018-05-11T02:06:41.908Z,13.53
2018-05-11T02:09:09.030Z,17.40
2018-05-11T02:11:35.519Z,12.17
2018-05-11T02:14:01.906Z,8.80
2018-05-11T02:16:28.316Z,19.50
2018-05-11T02:18:54.688Z,10.23
2018-05-11T02:21:21.821Z,10.60
2018-05-11T02:23:48.276Z,9.43
2018-05-11T02:26:15.411Z,10.23
2018-05-11T02:28:42.574Z,9.53
2018-05-11T02:31:09.699Z,10.83
2018-05-11T02:33:36.090Z,10.90
2018-05-11T02:36:02.478Z,16.53
2018-05-11T02:38:29.620Z,10.93
2018-05-11T02:40:56.755Z,10.87
2018-05-11T02:43:23.135Z,25.37
2018-05-11T02:45:49.549Z,11.03
2018-05-11T02:48:16.684Z,12.40
2018-05-11T02:50:43.180Z,16.00
2018-05-11T02:53:09.485Z,16.33
2018-05-11T02:55:35.952Z,13.30
2018-05-11T02:58:02.453Z,16.47
2018-05-11T03:00:28.834Z,16.83
2018-05-11T03:02:55.244Z,13.27
2018-05-11T03:05:21.625Z,13.50
2018-05-11T03:07:48.763Z,18.50
2018-05-11T03:10:15.167Z,15.47
2018-05-11T03:12:41.557Z,21.40
2018-05-11T03:15:08.690Z,17.00
2018-05-11T03:17:35.843Z,20.13
2018-05-11T03:20:03.021Z,21.73
2018-05-11T03:22:29.418Z,16.83
2018-05-11T03:24:55.887Z,14.13
2018-05-11T03:27:22.279Z,18.97
2018-05-11T03:29:48.675Z,20.37
2018-05-11T03:32:15.046Z,34.27
2018-05-11T03:34:41.454Z,21.83
2018-05-11T03:37:07.839Z,14.80
2018-05-11T03:39:34.234Z,17.13
2018-05-11T03:42:00.620Z,13.27
2018-05-11T03:44:27.015Z,13.27
2018-05-11T03:46:54.195Z,16.63
2018-05-11T03:49:20.572Z,13.37
2018-05-11T03:51:47.039Z,18.00
2018-05-11T03:54:14.223Z,15.03
2018-05-11T03:56:40.642Z,18.50
2018-05-11T03:59:07.034Z,15.03
2018-05-11T04:01:46.535Z,16.63
2018-05-11T04:04:25.445Z,17.57
2018-05-11T04:07:03.972Z,17.13
2018-05-11T04:09:30.362Z,17.67
2018-05-11T04:11:57.490Z,13.60
2018-05-11T04:14:23.869Z,19.87
2018-05-11T04:16:50.269Z,18.30
2018-05-11T04:19:17.418Z,20.10
2018-05-11T04:21:44.608Z,14.70
2018-05-11T04:24:11.003Z,19.10
2018-05-11T04:26:37.432Z,17.30
2018-05-11T04:29:04.618Z,21.40
2018-05-11T04:31:30.993Z,14.50
2018-05-11T04:33:57.380Z,12.53
2018-05-11T04:36:23.810Z,14.33
2018-05-11T04:38:50.217Z,14.23
2018-05-11T04:41:17.344Z,17.00
2018-05-11T04:43:43.725Z,19.10
2018-05-11T04:46:10.122Z,14.13
2018-05-11T04:48:36.498Z,15.67
2018-05-11T04:51:02.904Z,14.90
2018-05-11T04:53:30.035Z,15.83
2018-05-11T04:55:57.201Z,16.60
2018-05-11T04:58:24.306Z,14.87
2018-05-11T05:00:50.698Z,17.77
2018-05-11T05:03:17.138Z,13.97
2018-05-11T05:05:43.503Z,15.53
2018-05-11T05:08:09.891Z,15.67
2018-05-11T05:10:36.267Z,17.07
2018-05-11T05:13:02.667Z,15.73
2018-05-11T05:15:29.076Z,20.83
2018-05-11T05:17:56.210Z,17.63
2018-05-11T05:20:22.577Z,15.50
2018-05-11T05:22:48.973Z,19.13
2018-05-11T05:25:16.183Z,16.27
2018-05-11T05:27:42.702Z,16.80
2018-05-11T05:30:09.080Z,22.27
2018-05-11T05:32:35.501Z,18.10
2018-05-11T05:35:04.775Z,17.70
2018-05-11T05:37:31.170Z,20.03
2018-05-11T05:39:58.296Z,20.23
2018-05-11T05:42:24.748Z,25.63
2018-05-11T05:44:51.883Z,23.30
2018-05-11T05:47:18.266Z,32.23
2018-05-11T05:49:44.671Z,22.47
2018-05-11T05:52:11.840Z,24.23
2018-05-11T05:54:38.256Z,25.47
2018-05-11T05:57:05.498Z,24.80
2018-05-11T05:59:31.904Z,22.77
2018-05-11T06:01:58.313Z,22.00
2018-05-11T06:04:24.732Z,20.10
2018-05-11T06:06:51.126Z,19.83
2018-05-11T06:09:18.275Z,33.23
2018-05-11T06:11:45.408Z,24.13
2018-05-11T06:14:11.807Z,23.20
2018-05-11T06:16:38.195Z,21.90
2018-05-11T06:19:05.335Z,25.13
2018-05-11T06:21:31.716Z,26.80
2018-05-11T06:23:58.099Z,25.20
2018-05-11T06:26:25.274Z,33.27
2018-05-11T06:28:51.656Z,27.20
2018-05-11T06:31:18.050Z,25.47
2018-05-11T06:33:44.608Z,29.73
2018-05-11T06:36:11.231Z,27.83
2018-05-11T06:38:37.630Z,28.80
2018-05-11T06:41:04.811Z,29.17
2018-05-11T06:43:31.207Z,30.33
2018-05-11T06:45:57.600Z,31.23
2018-05-11T06:48:23.983Z,32.77
2018-05-11T06:50:51.145Z,37.17
2018-05-11T06:53:18.263Z,32.57
2018-05-11T06:55:44.697Z,31.13
2018-05-11T06:58:11.870Z,30.30
2018-05-11T07:00:38.995Z,34.80
2018-05-11T07:03:05.432Z,35.87
2018-05-11T07:05:31.851Z,32.20
2018-05-11T07:07:59.041Z,52.33
2018-05-11T07:10:25.416Z,33.83
2018-05-11T07:12:52.666Z,38.07
2018-05-11T07:15:19.062Z,34.40
2018-05-11T07:17:45.451Z,35.67
2018-05-11T07:20:11.835Z,34.73
2018-05-11T07:22:38.268Z,40.10
2018-05-11T07:25:04.662Z,36.13
2018-05-11T07:27:31.782Z,40.27
2018-05-11T07:29:58.175Z,41.13
2018-05-11T07:32:24.570Z,38.23
2018-05-11T07:34:51.033Z,38.80
2018-05-11T07:37:18.183Z,36.37
2018-05-11T07:39:44.592Z,40.37
2018-05-11T07:42:11.714Z,41.13
2018-05-11T07:44:38.102Z,43.73
2018-05-11T07:47:04.526Z,52.43
2018-05-11T07:49:31.683Z,40.57
2018-05-11T07:51:58.065Z,41.40
2018-05-11T07:54:24.470Z,37.93
2018-05-11T07:56:50.859Z,36.87
2018-05-11T07:59:17.251Z,43.23
2018-05-11T08:01:43.635Z,31.30
2018-05-11T08:04:10.766Z,39.73
2018-05-11T08:06:37.916Z,38.30
2018-05-11T08:09:04.346Z,40.73
2018-05-11T08:11:30.754Z,40.07
2018-05-11T08:13:57.155Z,37.53
2018-05-11T08:16:23.544Z,35.67
2018-05-11T08:18:49.951Z,35.60
2018-05-11T08:21:16.368Z,41.30
2018-05-11T08:23:42.775Z,42.37
2018-05-11T08:26:09.189Z,35.57
2018-05-11T08:28:36.339Z,38.07
2018-05-11T08:31:03.582Z,35.53
2018-05-11T08:33:30.766Z,37.07
2018-05-11T08:35:57.989Z,31.50
2018-05-11T08:38:24.428Z,34.50
2018-05-11T08:40:51.601Z,33.03
2018-05-11T08:43:18.007Z,37.97
2018-05-11T08:45:45.160Z,36.10
2018-05-11T08:48:12.302Z,36.17
2018-05-11T08:50:39.434Z,33.60
2018-05-11T08:53:05.827Z,36.53
2018-05-11T08:55:32.231Z,37.43
2018-05-11T08:57:58.734Z,38.37
2018-05-11T09:00:25.118Z,35.60
2018-05-11T09:02:51.530Z,36.17
2018-05-11T09:05:18.664Z,31.40
2018-05-11T09:07:45.051Z,42.27
2018-05-11T09:10:11.474Z,35.80
2018-05-11T09:12:37.862Z,33.60
2018-05-11T09:15:04.294Z,39.40
2018-05-11T09:17:31.462Z,29.63
2018-05-11T09:19:57.895Z,32.33
2018-05-11T09:22:24.314Z,33.13
2018-05-11T09:24:52.215Z,30.13
2018-05-11T09:27:18.602Z,35.00
2018-05-11T09:29:44.988Z,29.63
2018-05-11T09:32:11.387Z,31.10
2018-05-11T09:34:38.525Z,37.20
2018-05-11T09:37:04.927Z,31.03
2018-05-11T09:39:31.536Z,31.50
2018-05-11T09:41:57.964Z,28.23
2018-05-11T09:44:24.359Z,30.47
2018-05-11T09:46:51.518Z,25.67
2018-05-11T09:49:17.991Z,30.63
2018-05-11T09:51:44.395Z,27.43
2018-05-11T09:54:11.560Z,26.10
2018-05-11T09:56:37.996Z,29.00
2018-05-11T09:59:04.397Z,29.77
2018-05-11T10:01:31.584Z,27.43
2018-05-11T10:03:57.998Z,29.50
2018-05-11T10:06:25.132Z,28.60
2018-05-11T10:08:51.557Z,26.33
2018-05-11T10:11:18.695Z,25.07
2018-05-11T10:13:45.131Z,25.40
2018-05-11T10:16:11.555Z,25.10
2018-05-11T10:18:37.947Z,27.47
2018-05-11T10:21:04.350Z,23.27
2018-05-11T10:23:31.496Z,26.40
2018-05-11T10:25:57.921Z,25.07
2018-05-11T10:28:24.367Z,26.83
2018-05-11T10:30:51.520Z,28.87
2018-05-11T10:33:18.672Z,26.13
2018-05-11T10:35:45.845Z,26.23
2018-05-11T10:38:12.242Z,23.90
2018-05-11T10:40:39.389Z,26.03
2018-05-11T10:43:06.559Z,20.37
2018-05-11T10:45:33.700Z,24.60
2018-05-11T10:48:00.875Z,25.80
2018-05-11T10:50:27.251Z,32.10
2018-05-11T10:52:53.661Z,27.10
2018-05-11T10:55:20.074Z,29.90
2018-05-11T10:57:46.471Z,25.50
2018-05-11T11:00:14.483Z,30.80
2018-05-11T11:02:40.872Z,33.23
2018-05-11T11:05:08.021Z,25.83
2018-05-11T11:07:34.447Z,23.13
2018-05-11T11:10:00.844Z,25.13
2018-05-11T11:12:27.230Z,22.07
2018-05-11T11:14:53.643Z,18.00
2018-05-11T11:17:20.061Z,20.87
2018-05-11T11:19:46.469Z,21.00
2018-05-11T11:22:12.860Z,22.40
2018-05-11T11:24:39.990Z,22.00
2018-05-11T11:27:06.378Z,19.23
2018-05-11T11:29:32.797Z,24.40
2018-05-11T11:31:59.203Z,28.80
2018-05-11T11:34:27.168Z,21.20
2018-05-11T11:36:54.235Z,23.30
2018-05-11T11:39:21.415Z,22.47
2018-05-11T11:41:47.893Z,24.30
2018-05-11T11:44:15.002Z,23.07
2018-05-11T11:46:41.420Z,20.53
2018-05-11T11:49:07.815Z,19.63
2018-05-11T11:51:34.952Z,17.53
2018-05-11T11:54:01.338Z,19.43
2018-05-11T11:56:27.756Z,18.93
2018-05-11T11:58:54.100Z,24.30
2018-05-11T12:01:20.499Z,18.40
2018-05-11T12:03:46.932Z,18.80
2018-05-11T12:06:16.179Z,34.77
2018-05-11T12:08:42.600Z,21.00
2018-05-11T12:11:10.670Z,18.63
2018-05-11T12:13:37.068Z,21.17
2018-05-11T12:16:04.926Z,20.40
2018-05-11T12:18:32.795Z,29.63
2018-05-11T12:20:59.196Z,17.47
2018-05-11T12:23:25.590Z,18.20
2018-05-11T12:25:52.841Z,18.30
2018-05-11T12:28:19.971Z,25.03
2018-05-11T12:30:46.380Z,20.57
2018-05-11T12:33:13.563Z,23.10
2018-05-11T12:35:40.685Z,16.43
2018-05-11T12:38:07.093Z,19.20
2018-05-11T12:40:33.498Z,22.60
2018-05-11T12:42:59.911Z,18.37
2018-05-11T12:45:27.049Z,21.37
2018-05-11T12:47:54.938Z,18.57
2018-05-11T12:50:22.089Z,18.77
2018-05-11T12:52:48.509Z,19.73
2018-05-11T12:55:14.940Z,19.57
2018-05-11T12:57:41.332Z,18.03
2018-05-11T13:00:07.746Z,17.60
2018-05-11T13:02:34.173Z,19.27
2018-05-11T13:05:00.573Z,19.30
2018-05-11T13:07:26.995Z,18.00
2018-05-11T13:09:53.393Z,20.27
2018-05-11T13:12:19.790Z,21.80
2018-05-11T13:14:47.006Z,17.70
2018-05-11T13:17:14.137Z,19.53
2018-05-11T13:19:40.542Z,22.00
2018-05-11T13:22:06.921Z,25.73
2018-05-11T13:24:33.327Z,18.60
2018-05-11T13:26:59.714Z,19.80
2018-05-11T13:29:26.855Z,19.73
2018-05-11T13:31:53.273Z,19.00
2018-05-11T13:34:19.660Z,19.73
2018-05-11T13:36:46.060Z,19.43
2018-05-11T13:39:13.202Z,21.80
2018-05-11T13:41:39.594Z,18.83
2018-05-11T13:44:06.000Z,21.10
2018-05-11T13:46:32.395Z,21.03
2018-05-11T13:48:58.803Z,21.00
2018-05-11T13:51:25.209Z,22.50
2018-05-11T13:53:51.695Z,21.27
2018-05-11T13:56:18.239Z,20.03
2018-05-11T13:58:44.576Z,19.97
2018-05-11T14:01:11.719Z,31.03
2018-05-11T14:03:38.981Z,17.73
2018-05-11T14:06:06.881Z,21.10
2018-05-11T14:08:33.376Z,18.40
2018-05-11T14:10:59.719Z,20.37
2018-05-11T14:13:26.127Z,19.47
2018-05-11T14:15:53.278Z,15.00
2018-05-11T14:18:20.442Z,16.27
2018-05-11T14:20:47.591Z,18.87
2018-05-11T14:23:14.734Z,17.13
2018-05-11T14:25:41.112Z,23.50
2018-05-11T14:28:07.558Z,18.60
2018-05-11T14:30:33.975Z,16.57
2018-05-11T14:33:00.388Z,18.73
2018-05-11T14:35:27.591Z,20.00
2018-05-11T14:37:53.994Z,13.60
2018-05-11T14:40:20.383Z,12.50
2018-05-11T14:42:46.824Z,13.20
2018-05-11T14:45:13.969Z,13.93
2018-05-11T14:47:41.115Z,16.60
2018-05-11T14:50:08.260Z,15.00
2018-05-11T14:52:34.733Z,13.60
2018-05-11T14:55:01.146Z,16.20
2018-05-11T14:57:28.274Z,15.33
2018-05-11T14:59:54.673Z,12.37
2018-05-11T15:02:21.798Z,14.47
2018-05-11T15:04:48.201Z,14.93
2018-05-11T15:07:15.329Z,16.53
2018-05-11T15:09:43.206Z,18.70
2018-05-11T15:12:09.603Z,14.77
2018-05-11T15:14:36.000Z,17.17
2018-05-11T15:17:03.211Z,16.27
2018-05-11T15:22:29.856Z,18.53
2018-05-11T15:24:56.243Z,16.77
2018-05-11T15:27:23.403Z,16.67
2018-05-11T15:29:49.815Z,17.23
2018-05-11T15:32:16.955Z,23.23
2018-05-11T15:34:43.362Z,19.70
2018-05-11T15:37:11.264Z,16.87
2018-05-11T15:39:38.517Z,14.80
2018-05-11T15:42:05.670Z,18.30
2018-05-11T15:44:32.803Z,13.33
2018-05-11T15:46:59.964Z,13.90
2018-05-11T15:49:27.106Z,14.53
2018-05-11T15:51:54.284Z,17.97
2018-05-11T15:54:20.674Z,15.67
2018-05-11T15:56:47.073Z,17.30
2018-05-11T15:59:13.499Z,17.20
2018-05-11T16:01:39.948Z,18.50
2018-05-11T16:04:06.369Z,16.53
2018-05-11T16:06:32.798Z,21.00
2018-05-11T16:08:59.224Z,16.83
2018-05-11T16:11:25.636Z,17.50
2018-05-11T16:13:52.788Z,16.10
2018-05-11T16:16:19.931Z,13.40
2018-05-11T16:18:46.390Z,18.53
2018-05-11T16:21:12.820Z,15.73
2018-05-11T16:23:39.209Z,15.80
2018-05-11T16:26:05.597Z,13.33
2018-05-11T16:28:32.006Z,15.57
2018-05-11T16:30:59.145Z,15.03
2018-05-11T16:33:25.528Z,15.40
2018-05-11T16:35:51.943Z,14.83
2018-05-11T16:38:19.088Z,12.57
2018-05-11T16:40:45.515Z,14.20
2018-05-11T16:43:11.905Z,13.40
2018-05-11T16:45:38.303Z,16.50
2018-05-11T16:48:04.722Z,11.90
2018-05-11T16:50:31.164Z,12.33
2018-05-11T16:52:57.587Z,14.93
2018-05-11T16:55:24.731Z,16.90
2018-05-11T16:57:51.132Z,15.03
2018-05-11T17:00:18.294Z,17.47
2018-05-11T17:02:52.275Z,13.30
2018-05-11T17:05:19.435Z,14.47
2018-05-11T17:07:47.319Z,11.47
2018-05-11T17:10:14.467Z,12.20
2018-05-11T17:12:40.879Z,10.37
2018-05-11T17:15:07.305Z,14.33
2018-05-11T17:17:33.706Z,14.90
2018-05-11T17:20:00.108Z,17.77
2018-05-11T17:22:27.343Z,14.60
2018-05-11T17:24:53.778Z,15.63
2018-05-11T17:27:20.187Z,18.40
2018-05-11T17:29:46.589Z,16.77
2018-05-11T17:32:12.990Z,25.03
2018-05-11T17:34:40.143Z,25.33
2018-05-11T17:37:07.304Z,23.90
2018-05-11T17:39:34.452Z,28.87
2018-05-11T17:42:02.507Z,21.10
2018-05-11T17:44:29.690Z,17.40
2018-05-11T17:46:56.088Z,20.00
2018-05-11T17:49:23.216Z,23.20
2018-05-11T17:51:49.658Z,17.70
2018-05-11T17:54:16.813Z,18.20
2018-05-11T17:56:43.211Z,18.77
2018-05-11T17:59:09.663Z,21.73
2018-05-11T18:01:36.058Z,22.50
2018-05-11T18:04:02.472Z,29.53
2018-05-11T18:06:29.641Z,18.77
2018-05-11T18:08:56.017Z,18.67
2018-05-11T18:11:22.417Z,19.10
2018-05-11T18:13:48.873Z,21.50
2018-05-11T18:16:15.272Z,20.30
2018-05-11T18:18:42.414Z,23.20
2018-05-11T18:21:08.794Z,34.40
2018-05-11T18:23:35.262Z,24.43
2018-05-11T18:26:02.446Z,19.90
2018-05-11T18:28:28.873Z,23.63
2018-05-11T18:30:55.276Z,25.93
2018-05-11T18:33:22.419Z,32.17
2018-05-11T18:35:48.826Z,25.50
2018-05-11T18:38:15.222Z,28.83
2018-05-11T18:40:41.625Z,30.93
2018-05-11T18:43:08.795Z,25.23
2018-05-11T18:45:35.205Z,25.00
2018-05-11T18:48:02.378Z,19.37
2018-05-11T18:50:28.792Z,18.60
2018-05-11T18:52:55.969Z,109.33
2018-05-11T18:55:23.084Z,95.77
2018-05-11T18:57:50.223Z,23.33
2018-05-11T19:00:16.635Z,28.90
2018-05-11T19:02:43.099Z,18.57
2018-05-11T19:05:10.287Z,20.30
2018-05-11T19:07:36.728Z,27.57
2018-05-11T19:10:03.185Z,25.13
2018-05-11T19:12:29.591Z,22.63
2018-05-11T19:14:56.016Z,21.40
2018-05-11T19:17:22.410Z,25.47
2018-05-11T19:19:48.816Z,29.50
2018-05-11T19:22:15.273Z,26.17
2018-05-11T19:24:42.394Z,20.27
2018-05-11T19:27:08.867Z,21.40
2018-05-11T19:29:36.021Z,24.83
2018-05-11T19:32:03.160Z,20.83
2018-05-11T19:34:29.578Z,25.73
2018-05-11T19:36:55.968Z,20.97
2018-05-11T19:39:22.679Z,23.37
2018-05-11T19:41:49.826Z,22.77
2018-05-11T19:44:16.220Z,24.67
2018-05-11T19:46:42.636Z,21.30
2018-05-11T19:49:09.074Z,23.27
2018-05-11T19:51:35.485Z,21.40
2018-05-11T19:54:01.911Z,21.70
2018-05-11T19:56:29.044Z,18.30
2018-05-11T19:58:56.182Z,24.87
2018-05-11T20:01:22.581Z,22.10
2018-05-11T20:03:49.017Z,21.53
2018-05-11T20:06:15.446Z,25.20
2018-05-11T20:08:42.705Z,23.63
2018-05-11T20:11:09.106Z,27.93
2018-05-11T20:13:35.514Z,20.30
2018-05-11T20:16:01.907Z,26.73
2018-05-11T20:18:28.354Z,20.17
2018-05-11T20:20:54.748Z,22.40
2018-05-11T20:23:21.139Z,25.50
2018-05-11T20:25:47.945Z,26.43
2018-05-11T20:28:14.395Z,29.20
2018-05-11T20:30:40.826Z,28.20
2018-05-11T20:33:07.239Z,24.93
2018-05-11T20:35:33.659Z,33.03
2018-05-11T20:38:00.076Z,26.43
2018-05-11T20:40:26.513Z,28.67
2018-05-11T20:42:52.930Z,26.70
2018-05-11T20:45:20.062Z,32.93
2018-05-11T20:47:47.835Z,24.93
2018-05-11T20:50:15.014Z,31.83
2018-05-11T20:52:41.420Z,28.47
2018-05-11T20:55:08.544Z,29.63
2018-05-11T20:57:34.952Z,27.13
2018-05-11T21:00:01.373Z,27.30
2018-05-11T21:02:27.785Z,26.27
2018-05-11T21:04:54.264Z,35.10
2018-05-11T21:07:21.385Z,29.63
2018-05-11T21:09:47.790Z,30.57
2018-05-11T21:12:14.267Z,28.50
2018-05-11T21:14:40.684Z,26.03
2018-05-11T21:17:07.088Z,30.27
2018-05-11T21:19:34.254Z,31.30
2018-05-11T21:22:00.630Z,32.37
2018-05-11T21:24:27.030Z,28.20
2018-05-11T21:26:53.424Z,28.53
2018-05-11T21:29:20.566Z,29.70
2018-05-11T21:31:47.028Z,32.47
2018-05-11T21:34:13.434Z,28.40
2018-05-11T21:36:39.815Z,37.03
2018-05-11T21:39:06.232Z,33.50
2018-05-11T21:41:32.615Z,31.77
2018-05-11T21:43:59.001Z,33.57
2018-05-11T21:46:25.397Z,29.80
2018-05-11T21:48:52.541Z,41.47
2018-05-11T21:51:18.966Z,32.70
2018-05-11T21:53:45.369Z,28.20
2018-05-11T21:56:11.756Z,30.37
2018-05-11T21:58:38.918Z,28.70
2018-05-11T22:01:05.351Z,30.37
2018-05-11T22:03:31.752Z,29.67
2018-05-11T22:05:58.165Z,32.63
2018-05-11T22:08:24.586Z,35.63
2018-05-11T22:10:50.998Z,32.43
2018-05-11T22:13:17.449Z,33.03
2018-05-11T22:15:43.854Z,34.83
2018-05-11T22:18:10.248Z,33.97
2018-05-11T22:20:36.632Z,37.90
2018-05-11T22:23:03.027Z,31.83
2018-05-11T22:25:30.189Z,37.20
2018-05-11T22:27:56.630Z,32.10
2018-05-11T22:30:23.768Z,36.47
2018-05-11T22:32:50.911Z,31.13
2018-05-11T22:35:18.115Z,37.10
2018-05-11T22:37:44.519Z,35.43
2018-05-11T22:40:10.918Z,33.10
2018-05-11T22:42:38.039Z,29.57
2018-05-11T22:45:04.431Z,35.03
2018-05-11T22:47:30.807Z,34.80
2018-05-11T22:49:57.193Z,39.03
2018-05-11T22:52:23.578Z,33.53
2018-05-11T22:54:49.991Z,33.20
2018-05-11T22:57:16.374Z,37.00
2018-05-11T22:59:43.508Z,35.73
2018-05-11T23:02:09.895Z,32.60
2018-05-11T23:04:36.283Z,39.93
2018-05-11T23:07:03.427Z,35.63
2018-05-11T23:09:29.865Z,31.47
2018-05-11T23:11:57.000Z,34.30
2018-05-11T23:14:23.476Z,31.13
2018-05-11T23:16:49.892Z,25.83
2018-05-11T23:19:17.036Z,25.80
2018-05-11T23:21:44.204Z,28.60
2018-05-11T23:24:10.605Z,31.33
2018-05-11T23:26:38.504Z,31.17
2018-05-11T23:29:04.938Z,24.73
2018-05-11T23:31:31.366Z,31.17
2018-05-11T23:33:58.502Z,30.43
2018-05-11T23:36:25.714Z,29.17
2018-05-11T23:38:52.118Z,31.13
2018-05-11T23:41:18.537Z,31.50
2018-05-11T23:43:44.945Z,38.00
2018-05-11T23:46:11.334Z,31.50
2018-05-11T23:48:37.738Z,39.43
2018-05-11T23:51:04.138Z,30.57
2018-05-11T23:53:31.293Z,31.83
2018-05-11T23:55:58.486Z,33.90
2018-05-11T23:58:24.905Z,34.37
